Castro Verd, Portugal
Current Conditions -  °F | °C
As of 3:00 PM on Sunday 21 Dec 2014 (Local Time) from LPBJ Reporting Station
Few Clouds Few Clouds  
Wind Chill: 55°   Ceiling: Unl
Heat Index: 55°   Visibility: 6mi
Dew Point: 48°   Wind: 5mph
Humidity: 77%   Direction: 70°ENE
Pressure: 30.39"   Gusts: NA
Location:  37.7°N, 8.08°W
Report Text: LPBJ 211500Z 07004KT 9999 FEW007 13/09 Q1029
Loading
Personal Weather Stations






























Interactive Weather Map New forecast layout! Learn more

10-Day Weather Forecast

Advertisements
Track Severe Weather on mobile